Daisytown, PA (15427)

11:14 AM EST on November 26, 2014 (GMT -0500)
Belle Vernon | Change Station
CLOSE
Current Station
Personal Weather Station
Location: Belle Vernon, PA
Elevation: 996 ft
Nearby Weather Stations

Elev 996 ft 40.12 °N, 79.85 °W | Updated 8 seconds ago

Snow
Snow
34.3 °F
Feels Like 34 °F
N
0.0
Wind Variable Wind from NNW
Gusts 0.0 mph

Today
High -- | Low -- °F
--% Chance of Precip.
Yesterday
High -- | Low -- °F
Precip. -- in
7:17 AM 4:56 PM
Waxing Crescent, 20% visible
Pressure 30.09 in
Visibility 1.0 miles
Clouds Overcast 600 ft
Windchill 34 °F
Dew Point 30 °F
Humidity 85%
Rainfall 0.00 in
Snow Depth Not available.
UV 1 out of 12
Pollen .10 out of 12
Air Quality Not available.
Flu Activity Not available.
METAR KAFJ 261555Z 00000KT 1SM OVC006 M01/M02 A3009 RMK AO1 P0002

More Conditions Fewer Conditions

Pressure 30.09 in
Visibility 1.0 miles
Clouds Overcast 600 ft
Windchill 34 °F
Dew Point 30 °F
Humidity 85%
Rainfall 0.00 in
Snow Depth Not available.
UV 1 out of 12
Pollen .10 out of 12
Air Quality Not available.
Flu Activity Not available.
METAR KAFJ 261555Z 00000KT 1SM OVC006 M01/M02 A3009 RMK AO1 P0002

More Conditions Fewer Conditions

10-Day Weather Forecast

Almanac

Astronomy

Nov. 26, 2014 Rise Set
Actual Time
Civil Twilight
Nautical Twilight
Astronomical Twilight
Moon
Length of Visible Light
Length of Day
Tomorrow will be .
, % of the Moon is Illuminated

Today's Extremes

State Highs State Lows

Community

WunderPhotos

Upload Photos

1,773,780 photos uploaded!

WunderBlogs® & News

Nearby

Air Quality

  Air Quality AQ Index Pollutant
Not available.

Snow Depth

Station Depth Elevation

Earthquake Activity

City Distance Mag. Time & Date
Minimum magnitude displayed is 2.5.

Coastal Water Temperatures

Place Temperature

Nearby Weather Stations